sensor_id;sensor_type;location;lat;lon;timestamp;P1;P2;P0
41382;PMS5003;27971;53.902;9.118;2023-02-04T00:05:05;2.9;2.1;
41382;PMS5003;27971;53.902;9.118;2023-02-04T00:07:07;2.83;1.98;
41382;PMS5003;27971;53.902;9.118;2023-02-04T00:09:10;2.12;1.78;
41382;PMS5003;27971;53.902;9.118;2023-02-04T00:11:13;3.02;1.96;
41382;PMS5003;27971;53.902;9.118;2023-02-04T00:13:16;2.18;1.93;
41382;PMS5003;27971;53.902;9.118;2023-02-04T00:15:19;2.35;1.2;
41382;PMS5003;27971;53.902;9.118;2023-02-04T00:17:21;1.73;1.22;
41382;PMS5003;27971;53.902;9.118;2023-02-04T00:19:24;3.99;2.32;
41382;PMS5003;27971;53.902;9.118;2023-02-04T00:21:27;2.64;2.2;
41382;PMS5003;27971;53.902;9.118;2023-02-04T00:23:29;2.03;1.58;
41382;PMS5003;27971;53.902;9.118;2023-02-04T00:25:32;2.02;1.66;
41382;PMS5003;27971;53.902;9.118;2023-02-04T00:27:34;2.14;1.98;
41382;PMS5003;27971;53.902;9.118;2023-02-04T00:29:37;2.24;1.73;
41382;PMS5003;27971;53.902;9.118;2023-02-04T00:31:39;2.04;1.32;
41382;PMS5003;27971;53.902;9.118;2023-02-04T00:33:42;2.74;1.95;
41382;PMS5003;27971;53.902;9.118;2023-02-04T00:35:46;1.69;1.46;
41382;PMS5003;27971;53.902;9.118;2023-02-04T00:37:48;3.16;2.56;
41382;PMS5003;27971;53.902;9.118;2023-02-04T00:39:51;2.22;1.86;
41382;PMS5003;27971;53.902;9.118;2023-02-04T00:41:54;2.93;2.37;
41382;PMS5003;27971;53.902;9.118;2023-02-04T00:43:56;1.9;1.51;
41382;PMS5003;27971;53.902;9.118;2023-02-04T00:45:58;2.1;1.2;
41382;PMS5003;27971;53.902;9.118;2023-02-04T00:48:01;3.91;3.53;
41382;PMS5003;27971;53.902;9.118;2023-02-04T00:50:04;1.93;1.8;
41382;PMS5003;27971;53.902;9.118;2023-02-04T00:52:06;2.07;1.88;
41382;PMS5003;27971;53.902;9.118;2023-02-04T00:54:08;2.49;2.18;
41382;PMS5003;27971;53.902;9.118;2023-02-04T00:56:10;1.73;1.28;
41382;PMS5003;27971;53.902;9.118;2023-02-04T00:58:13;1.89;1.84;
41382;PMS5003;27971;53.902;9.118;2023-02-04T01:00:16;2.3;1.8;
41382;PMS5003;27971;53.902;9.118;2023-02-04T01:02:18;2.92;1.97;
41382;PMS5003;27971;53.902;9.118;2023-02-04T01:04:21;2.91;1.83;
41382;PMS5003;27971;53.902;9.118;2023-02-04T01:06:24;1.89;1.66;
41382;PMS5003;27971;53.902;9.118;2023-02-04T01:08:27;2.47;1.57;
41382;PMS5003;27971;53.902;9.118;2023-02-04T01:10:29;3.77;3.38;
41382;PMS5003;27971;53.902;9.118;2023-02-04T01:12:32;3.17;1.86;
41382;PMS5003;27971;53.902;9.118;2023-02-04T01:14:35;2.14;1.34;
41382;PMS5003;27971;53.902;9.118;2023-02-04T01:16:38;1.84;1.07;
41382;PMS5003;27971;53.902;9.118;2023-02-04T01:18:41;0.77;0.56;
41382;PMS5003;27971;53.902;9.118;2023-02-04T01:20:44;2.8;1.79;
41382;PMS5003;27971;53.902;9.118;2023-02-04T01:22:47;2.39;1.78;
41382;PMS5003;27971;53.902;9.118;2023-02-04T01:24:50;2.64;2.22;
41382;PMS5003;27971;53.902;9.118;2023-02-04T01:26:53;1.86;1.28;
41382;PMS5003;27971;53.902;9.118;2023-02-04T01:28:55;2.07;1.24;
41382;PMS5003;27971;53.902;9.118;2023-02-04T01:30:57;2.43;1.73;
41382;PMS5003;27971;53.902;9.118;2023-02-04T01:33:00;1.38;1.12;
41382;PMS5003;27971;53.902;9.118;2023-02-04T01:35:02;2.12;1.03;
41382;PMS5003;27971;53.902;9.118;2023-02-04T01:37:05;2.3;1.67;
41382;PMS5003;27971;53.902;9.118;2023-02-04T01:39:07;2.77;1.91;
41382;PMS5003;27971;53.902;9.118;2023-02-04T01:41:10;1.82;1.59;
41382;PMS5003;27971;53.902;9.118;2023-02-04T01:43:13;2.78;2.24;
41382;PMS5003;27971;53.902;9.118;2023-02-04T01:45:16;3.97;2.63;
41382;PMS5003;27971;53.902;9.118;2023-02-04T01:47:19;2.59;1.99;
41382;PMS5003;27971;53.902;9.118;2023-02-04T01:49:21;3.1;2.74;
41382;PMS5003;27971;53.902;9.118;2023-02-04T01:51:25;2.72;2.19;
41382;PMS5003;27971;53.902;9.118;2023-02-04T01:53:26;4.19;3.12;
41382;PMS5003;27971;53.902;9.118;2023-02-04T01:55:29;2.11;1.79;
41382;PMS5003;27971;53.902;9.118;2023-02-04T01:57:31;2.13;1.52;
41382;PMS5003;27971;53.902;9.118;2023-02-04T01:59:35;3.17;2.52;
41382;PMS5003;27971;53.902;9.118;2023-02-04T02:01:38;4.01;2.13;
41382;PMS5003;27971;53.902;9.118;2023-02-04T02:03:40;2.91;2.11;
41382;PMS5003;27971;53.902;9.118;2023-02-04T02:05:43;1.82;1.58;
41382;PMS5003;27971;53.902;9.118;2023-02-04T02:07:46;3.18;2.31;
41382;PMS5003;27971;53.902;9.118;2023-02-04T02:09:48;1.59;0.68;
41382;PMS5003;27971;53.902;9.118;2023-02-04T02:11:51;2.57;1.74;
41382;PMS5003;27971;53.902;9.118;2023-02-04T02:13:53;2.57;1.97;
41382;PMS5003;27971;53.902;9.118;2023-02-04T02:15:56;2.34;1.54;
41382;PMS5003;27971;53.902;9.118;2023-02-04T02:17:59;1.73;1.73;
41382;PMS5003;27971;53.902;9.118;2023-02-04T02:20:01;1.57;1.34;
41382;PMS5003;27971;53.902;9.118;2023-02-04T02:22:05;3.1;1.3;
41382;PMS5003;27971;53.902;9.118;2023-02-04T02:24:22;1.99;1.4;
41382;PMS5003;27971;53.902;9.118;2023-02-04T02:26:09;1.24;0.78;
41382;PMS5003;27971;53.902;9.118;2023-02-04T02:28:12;1.3;1.2;
41382;PMS5003;27971;53.902;9.118;2023-02-04T02:30:15;2.63;1.33;
41382;PMS5003;27971;53.902;9.118;2023-02-04T02:32:18;3.3;2.4;
41382;PMS5003;27971;53.902;9.118;2023-02-04T02:34:21;1.9;1.68;
41382;PMS5003;27971;53.902;9.118;2023-02-04T02:36:29;1.57;1.5;
41382;PMS5003;27971;53.902;9.118;2023-02-04T02:38:26;1.99;1.44;
41382;PMS5003;27971;53.902;9.118;2023-02-04T02:40:29;2.09;1.74;
41382;PMS5003;27971;53.902;9.118;2023-02-04T02:42:31;1.8;1.51;
41382;PMS5003;27971;53.902;9.118;2023-02-04T02:44:34;2.4;1.79;
41382;PMS5003;27971;53.902;9.118;2023-02-04T02:46:36;1.81;1.44;
41382;PMS5003;27971;53.902;9.118;2023-02-04T02:48:40;1.06;0.79;
41382;PMS5003;27971;53.902;9.118;2023-02-04T02:50:42;1.29;0.99;
41382;PMS5003;27971;53.902;9.118;2023-02-04T02:52:44;2.7;1.8;
41382;PMS5003;27971;53.902;9.118;2023-02-04T02:54:47;2.44;1.52;
41382;PMS5003;27971;53.902;9.118;2023-02-04T02:56:50;2.28;1.89;
41382;PMS5003;27971;53.902;9.118;2023-02-04T02:58:52;1.29;1.16;
41382;PMS5003;27971;53.902;9.118;2023-02-04T03:00:55;1.57;1.57;
41382;PMS5003;27971;53.902;9.118;2023-02-04T03:02:59;1.8;1.27;
41382;PMS5003;27971;53.902;9.118;2023-02-04T03:05:01;1.83;0.86;
41382;PMS5003;27971;53.902;9.118;2023-02-04T03:07:04;2.63;2.56;
41382;PMS5003;27971;53.902;9.118;2023-02-04T03:09:07;2.68;1.58;
41382;PMS5003;27971;53.902;9.118;2023-02-04T03:11:10;2.93;1.93;
41382;PMS5003;27971;53.902;9.118;2023-02-04T03:13:12;1.76;1.52;
41382;PMS5003;27971;53.902;9.118;2023-02-04T03:15:15;1.15;0.8;
41382;PMS5003;27971;53.902;9.118;2023-02-04T03:17:22;1.4;1.38;
41382;PMS5003;27971;53.902;9.118;2023-02-04T03:19:21;1.55;1.23;
41382;PMS5003;27971;53.902;9.118;2023-02-04T03:21:23;2.4;1.83;
41382;PMS5003;27971;53.902;9.118;2023-02-04T03:23:26;2.51;1.66;
41382;PMS5003;27971;53.902;9.118;2023-02-04T03:25:28;2.06;1.53;
41382;PMS5003;27971;53.902;9.118;2023-02-04T03:27:30;1.71;1.53;
41382;PMS5003;27971;53.902;9.118;2023-02-04T03:29:34;1.28;1.26;
41382;PMS5003;27971;53.902;9.118;2023-02-04T03:31:36;1.1;1.1;
41382;PMS5003;27971;53.902;9.118;2023-02-04T03:33:38;1.67;0.99;
41382;PMS5003;27971;53.902;9.118;2023-02-04T03:35:40;1.66;1.38;
41382;PMS5003;27971;53.902;9.118;2023-02-04T03:37:43;1.97;0.8;
41382;PMS5003;27971;53.902;9.118;2023-02-04T03:39:45;2.09;1.58;
41382;PMS5003;27971;53.902;9.118;2023-02-04T03:41:48;1.4;1.06;
41382;PMS5003;27971;53.902;9.118;2023-02-04T03:43:50;0.79;0.32;
41382;PMS5003;27971;53.902;9.118;2023-02-04T03:45:52;2.04;1.52;
41382;PMS5003;27971;53.902;9.118;2023-02-04T03:47:55;1.89;0.94;
41382;PMS5003;27971;53.902;9.118;2023-02-04T03:49:57;1.08;0.76;
41382;PMS5003;27971;53.902;9.118;2023-02-04T03:52:00;1.06;0.76;
41382;PMS5003;27971;53.902;9.118;2023-02-04T03:54:02;1.83;1.53;
41382;PMS5003;27971;53.902;9.118;2023-02-04T03:56:05;1.42;1.29;
41382;PMS5003;27971;53.902;9.118;2023-02-04T03:58:07;2.06;1.71;
41382;PMS5003;27971;53.902;9.118;2023-02-04T04:00:11;2.42;1.58;
41382;PMS5003;27971;53.902;9.118;2023-02-04T04:02:14;1.64;1.45;
41382;PMS5003;27971;53.902;9.118;2023-02-04T04:04:16;1.61;1.03;
41382;PMS5003;27971;53.902;9.118;2023-02-04T04:06:19;1.59;1.0;
41382;PMS5003;27971;53.902;9.118;2023-02-04T04:08:21;2.14;1.94;
41382;PMS5003;27971;53.902;9.118;2023-02-04T04:10:25;2.23;1.46;
41382;PMS5003;27971;53.902;9.118;2023-02-04T04:12:28;1.91;1.69;
41382;PMS5003;27971;53.902;9.118;2023-02-04T04:14:30;1.9;1.29;
41382;PMS5003;27971;53.902;9.118;2023-02-04T04:16:33;1.03;0.87;
41382;PMS5003;27971;53.902;9.118;2023-02-04T04:18:35;1.19;1.19;
41382;PMS5003;27971;53.902;9.118;2023-02-04T04:20:37;1.62;1.62;
41382;PMS5003;27971;53.902;9.118;2023-02-04T04:22:40;1.21;1.21;
41382;PMS5003;27971;53.902;9.118;2023-02-04T04:24:42;1.37;0.91;
41382;PMS5003;27971;53.902;9.118;2023-02-04T04:26:44;1.4;1.06;
41382;PMS5003;27971;53.902;9.118;2023-02-04T04:28:47;1.54;1.28;
41382;PMS5003;27971;53.902;9.118;2023-02-04T04:30:50;1.48;1.15;
41382;PMS5003;27971;53.902;9.118;2023-02-04T04:32:53;2.53;1.2;
41382;PMS5003;27971;53.902;9.118;2023-02-04T04:34:55;0.62;0.62;
41382;PMS5003;27971;53.902;9.118;2023-02-04T04:36:59;1.13;0.9;
41382;PMS5003;27971;53.902;9.118;2023-02-04T04:39:01;1.69;1.56;
41382;PMS5003;27971;53.902;9.118;2023-02-04T04:41:04;1.84;1.08;
41382;PMS5003;27971;53.902;9.118;2023-02-04T04:43:06;0.76;0.56;
41382;PMS5003;27971;53.902;9.118;2023-02-04T04:45:10;1.6;1.32;
41382;PMS5003;27971;53.902;9.118;2023-02-04T04:47:12;1.8;1.47;
41382;PMS5003;27971;53.902;9.118;2023-02-04T04:49:15;1.66;0.79;
41382;PMS5003;27971;53.902;9.118;2023-02-04T04:51:17;0.91;0.38;
41382;PMS5003;27971;53.902;9.118;2023-02-04T04:53:19;1.56;1.3;
41382;PMS5003;27971;53.902;9.118;2023-02-04T04:55:22;1.31;1.01;
41382;PMS5003;27971;53.902;9.118;2023-02-04T04:57:25;0.87;0.87;
41382;PMS5003;27971;53.902;9.118;2023-02-04T04:59:27;1.57;1.09;
41382;PMS5003;27971;53.902;9.118;2023-02-04T05:01:30;1.5;1.06;
41382;PMS5003;27971;53.902;9.118;2023-02-04T05:03:33;1.53;0.97;
41382;PMS5003;27971;53.902;9.118;2023-02-04T05:05:35;1.98;1.52;
41382;PMS5003;27971;53.902;9.118;2023-02-04T05:07:37;2.03;1.33;
41382;PMS5003;27971;53.902;9.118;2023-02-04T05:09:41;1.59;1.26;
41382;PMS5003;27971;53.902;9.118;2023-02-04T05:11:43;1.82;1.0;
41382;PMS5003;27971;53.902;9.118;2023-02-04T05:13:45;1.38;0.9;
41382;PMS5003;27971;53.902;9.118;2023-02-04T05:15:48;2.24;1.27;
41382;PMS5003;27971;53.902;9.118;2023-02-04T05:17:50;2.18;1.22;
41382;PMS5003;27971;53.902;9.118;2023-02-04T05:19:53;1.31;0.98;
41382;PMS5003;27971;53.902;9.118;2023-02-04T05:21:55;0.93;0.8;
41382;PMS5003;27971;53.902;9.118;2023-02-04T05:23:57;0.84;0.38;
41382;PMS5003;27971;53.902;9.118;2023-02-04T05:26:00;1.06;0.96;
41382;PMS5003;27971;53.902;9.118;2023-02-04T05:28:02;1.99;1.46;
41382;PMS5003;27971;53.902;9.118;2023-02-04T05:30:05;0.48;0.21;
41382;PMS5003;27971;53.902;9.118;2023-02-04T05:32:08;1.33;1.29;
41382;PMS5003;27971;53.902;9.118;2023-02-04T05:34:10;1.07;0.72;
41382;PMS5003;27971;53.902;9.118;2023-02-04T05:36:13;1.12;0.74;
41382;PMS5003;27971;53.902;9.118;2023-02-04T05:38:15;0.86;0.81;
41382;PMS5003;27971;53.902;9.118;2023-02-04T05:40:17;1.42;1.23;
41382;PMS5003;27971;53.902;9.118;2023-02-04T05:42:20;2.1;1.09;
41382;PMS5003;27971;53.902;9.118;2023-02-04T05:44:23;2.69;1.46;
41382;PMS5003;27971;53.902;9.118;2023-02-04T05:46:25;1.41;1.27;
41382;PMS5003;27971;53.902;9.118;2023-02-04T05:48:27;2.1;1.07;
41382;PMS5003;27971;53.902;9.118;2023-02-04T05:50:30;0.94;0.94;
41382;PMS5003;27971;53.902;9.118;2023-02-04T05:52:34;1.07;0.9;
41382;PMS5003;27971;53.902;9.118;2023-02-04T05:54:36;0.6;0.31;
41382;PMS5003;27971;53.902;9.118;2023-02-04T05:56:38;0.27;0.23;
41382;PMS5003;27971;53.902;9.118;2023-02-04T05:58:41;1.13;0.77;
41382;PMS5003;27971;53.902;9.118;2023-02-04T06:00:44;1.9;1.41;
41382;PMS5003;27971;53.902;9.118;2023-02-04T06:02:47;1.28;0.88;
41382;PMS5003;27971;53.902;9.118;2023-02-04T06:04:49;0.86;0.49;
41382;PMS5003;27971;53.902;9.118;2023-02-04T06:06:52;1.51;1.27;
41382;PMS5003;27971;53.902;9.118;2023-02-04T06:08:54;0.9;0.58;
41382;PMS5003;27971;53.902;9.118;2023-02-04T06:10:56;1.3;0.97;
41382;PMS5003;27971;53.902;9.118;2023-02-04T06:12:59;1.92;1.47;
41382;PMS5003;27971;53.902;9.118;2023-02-04T06:15:02;1.49;1.41;
41382;PMS5003;27971;53.902;9.118;2023-02-04T06:17:04;1.5;1.18;
41382;PMS5003;27971;53.902;9.118;2023-02-04T06:19:06;1.64;1.57;
41382;PMS5003;27971;53.902;9.118;2023-02-04T06:21:09;1.73;1.03;
41382;PMS5003;27971;53.902;9.118;2023-02-04T06:23:11;1.83;1.24;
41382;PMS5003;27971;53.902;9.118;2023-02-04T06:25:14;1.73;0.89;
41382;PMS5003;27971;53.902;9.118;2023-02-04T06:27:16;1.99;1.17;
41382;PMS5003;27971;53.902;9.118;2023-02-04T06:29:19;0.87;0.81;
41382;PMS5003;27971;53.902;9.118;2023-02-04T06:31:22;0.62;0.48;
41382;PMS5003;27971;53.902;9.118;2023-02-04T06:33:25;1.67;1.33;
41382;PMS5003;27971;53.902;9.118;2023-02-04T06:35:27;1.17;0.99;
41382;PMS5003;27971;53.902;9.118;2023-02-04T06:37:30;1.29;1.09;
41382;PMS5003;27971;53.902;9.118;2023-02-04T06:39:32;0.94;0.88;
41382;PMS5003;27971;53.902;9.118;2023-02-04T06:41:34;1.08;0.83;
41382;PMS5003;27971;53.902;9.118;2023-02-04T06:43:36;1.43;1.07;
41382;PMS5003;27971;53.902;9.118;2023-02-04T06:45:39;1.0;1.0;
41382;PMS5003;27971;53.902;9.118;2023-02-04T06:47:42;1.21;1.18;
41382;PMS5003;27971;53.902;9.118;2023-02-04T06:49:44;0.31;0.1;
41382;PMS5003;27971;53.902;9.118;2023-02-04T06:51:48;0.5;0.33;
41382;PMS5003;27971;53.902;9.118;2023-02-04T06:53:50;1.51;0.36;
41382;PMS5003;27971;53.902;9.118;2023-02-04T06:55:52;1.64;0.87;
41382;PMS5003;27971;53.902;9.118;2023-02-04T06:57:55;0.53;0.42;
41382;PMS5003;27971;53.902;9.118;2023-02-04T06:59:57;1.13;0.93;
41382;PMS5003;27971;53.902;9.118;2023-02-04T07:01:59;1.01;0.68;
41382;PMS5003;27971;53.902;9.118;2023-02-04T07:04:02;1.09;0.66;
41382;PMS5003;27971;53.902;9.118;2023-02-04T07:06:05;0.96;0.96;
41382;PMS5003;27971;53.902;9.118;2023-02-04T07:08:07;1.17;0.9;
41382;PMS5003;27971;53.902;9.118;2023-02-04T07:10:10;0.8;0.52;
41382;PMS5003;27971;53.902;9.118;2023-02-04T07:12:13;0.83;0.81;
41382;PMS5003;27971;53.902;9.118;2023-02-04T07:14:14;0.17;0.11;
41382;PMS5003;27971;53.902;9.118;2023-02-04T07:16:17;0.67;0.36;
41382;PMS5003;27971;53.902;9.118;2023-02-04T07:18:19;2.53;1.08;
41382;PMS5003;27971;53.902;9.118;2023-02-04T07:20:21;0.64;0.56;
41382;PMS5003;27971;53.902;9.118;2023-02-04T07:22:24;1.1;0.62;
41382;PMS5003;27971;53.902;9.118;2023-02-04T07:24:26;1.32;0.93;
41382;PMS5003;27971;53.902;9.118;2023-02-04T07:26:28;0.94;0.77;
41382;PMS5003;27971;53.902;9.118;2023-02-04T07:28:31;1.41;0.74;
41382;PMS5003;27971;53.902;9.118;2023-02-04T07:30:34;0.52;0.52;
41382;PMS5003;27971;53.902;9.118;2023-02-04T07:32:36;0.52;0.36;
41382;PMS5003;27971;53.902;9.118;2023-02-04T07:34:39;0.2;0.2;
41382;PMS5003;27971;53.902;9.118;2023-02-04T07:36:41;1.34;0.71;
41382;PMS5003;27971;53.902;9.118;2023-02-04T07:38:44;1.17;1.17;
41382;PMS5003;27971;53.902;9.118;2023-02-04T07:40:47;1.38;0.68;
41382;PMS5003;27971;53.902;9.118;2023-02-04T07:42:49;1.68;0.61;
41382;PMS5003;27971;53.902;9.118;2023-02-04T07:44:52;1.01;0.91;
41382;PMS5003;27971;53.902;9.118;2023-02-04T07:46:54;0.94;0.62;
41382;PMS5003;27971;53.902;9.118;2023-02-04T07:48:57;0.4;0.36;
41382;PMS5003;27971;53.902;9.118;2023-02-04T07:51:00;1.76;1.17;
41382;PMS5003;27971;53.902;9.118;2023-02-04T07:53:02;2.08;1.03;
41382;PMS5003;27971;53.902;9.118;2023-02-04T07:55:05;0.69;0.62;
41382;PMS5003;27971;53.902;9.118;2023-02-04T07:57:07;1.34;1.07;
41382;PMS5003;27971;53.902;9.118;2023-02-04T07:59:10;1.29;0.99;
41382;PMS5003;27971;53.902;9.118;2023-02-04T08:01:13;0.42;0.42;
41382;PMS5003;27971;53.902;9.118;2023-02-04T08:03:15;1.6;1.43;
41382;PMS5003;27971;53.902;9.118;2023-02-04T08:05:18;0.6;0.57;
41382;PMS5003;27971;53.902;9.118;2023-02-04T08:07:20;0.7;0.53;
41382;PMS5003;27971;53.902;9.118;2023-02-04T08:09:23;0.93;0.9;
41382;PMS5003;27971;53.902;9.118;2023-02-04T08:11:26;0.77;0.27;
41382;PMS5003;27971;53.902;9.118;2023-02-04T08:13:28;1.16;0.72;
41382;PMS5003;27971;53.902;9.118;2023-02-04T08:15:30;1.07;0.83;
41382;PMS5003;27971;53.902;9.118;2023-02-04T08:17:33;0.1;0.1;
41382;PMS5003;27971;53.902;9.118;2023-02-04T08:19:35;1.22;1.22;
41382;PMS5003;27971;53.902;9.118;2023-02-04T08:21:38;1.47;1.1;
41382;PMS5003;27971;53.902;9.118;2023-02-04T08:23:40;1.3;0.8;
41382;PMS5003;27971;53.902;9.118;2023-02-04T08:25:43;0.39;0.09;
41382;PMS5003;27971;53.902;9.118;2023-02-04T08:27:46;0.92;0.92;
41382;PMS5003;27971;53.902;9.118;2023-02-04T08:29:48;2.27;1.5;
41382;PMS5003;27971;53.902;9.118;2023-02-04T08:31:50;0.94;0.64;
41382;PMS5003;27971;53.902;9.118;2023-02-04T08:33:53;0.46;0.42;
41382;PMS5003;27971;53.902;9.118;2023-02-04T08:35:55;0.74;0.64;
41382;PMS5003;27971;53.902;9.118;2023-02-04T08:37:58;0.36;0.19;
41382;PMS5003;27971;53.902;9.118;2023-02-04T08:40:00;0.72;0.56;
41382;PMS5003;27971;53.902;9.118;2023-02-04T08:42:03;1.57;1.13;
41382;PMS5003;27971;53.902;9.118;2023-02-04T08:44:05;1.5;1.3;
41382;PMS5003;27971;53.902;9.118;2023-02-04T08:46:08;1.21;1.21;
41382;PMS5003;27971;53.902;9.118;2023-02-04T08:48:10;1.13;0.9;
41382;PMS5003;27971;53.902;9.118;2023-02-04T08:50:12;1.54;0.78;
41382;PMS5003;27971;53.902;9.118;2023-02-04T08:52:15;0.3;0.13;
41382;PMS5003;27971;53.902;9.118;2023-02-04T08:54:17;1.63;1.37;
41382;PMS5003;27971;53.902;9.118;2023-02-04T08:56:20;1.23;1.07;
41382;PMS5003;27971;53.902;9.118;2023-02-04T08:58:22;0.22;0.14;
41382;PMS5003;27971;53.902;9.118;2023-02-04T09:00:25;0.54;0.47;
41382;PMS5003;27971;53.902;9.118;2023-02-04T09:02:27;0.57;0.57;
41382;PMS5003;27971;53.902;9.118;2023-02-04T09:04:30;1.42;0.96;
41382;PMS5003;27971;53.902;9.118;2023-02-04T09:06:32;0.51;0.51;
41382;PMS5003;27971;53.902;9.118;2023-02-04T09:08:35;1.11;0.78;
41382;PMS5003;27971;53.902;9.118;2023-02-04T09:10:37;2.92;2.62;
41382;PMS5003;27971;53.902;9.118;2023-02-04T09:12:40;2.68;2.24;
41382;PMS5003;27971;53.902;9.118;2023-02-04T09:14:42;3.0;2.9;
41382;PMS5003;27971;53.902;9.118;2023-02-04T09:16:45;3.5;3.5;
41382;PMS5003;27971;53.902;9.118;2023-02-04T09:18:47;1.33;1.33;
41382;PMS5003;27971;53.902;9.118;2023-02-04T09:20:50;0.88;0.22;
41382;PMS5003;27971;53.902;9.118;2023-02-04T09:22:53;0.4;0.3;
41382;PMS5003;27971;53.902;9.118;2023-02-04T09:24:56;0.09;0.09;
41382;PMS5003;27971;53.902;9.118;2023-02-04T09:26:58;1.79;0.81;
41382;PMS5003;27971;53.902;9.118;2023-02-04T09:29:01;0.34;0.28;
41382;PMS5003;27971;53.902;9.118;2023-02-04T09:31:04;0.3;0.19;
41382;PMS5003;27971;53.902;9.118;2023-02-04T09:33:06;1.16;0.47;
41382;PMS5003;27971;53.902;9.118;2023-02-04T09:35:08;0.49;0.36;
41382;PMS5003;27971;53.902;9.118;2023-02-04T09:37:11;0.59;0.59;
41382;PMS5003;27971;53.902;9.118;2023-02-04T09:39:13;0.46;0.39;
41382;PMS5003;27971;53.902;9.118;2023-02-04T09:41:16;1.06;0.87;
41382;PMS5003;27971;53.902;9.118;2023-02-04T09:43:20;0.56;0.21;
41382;PMS5003;27971;53.902;9.118;2023-02-04T09:45:21;0.61;0.33;
41382;PMS5003;27971;53.902;9.118;2023-02-04T09:47:23;0.0;0.0;
41382;PMS5003;27971;53.902;9.118;2023-02-04T09:49:26;0.63;0.38;
41382;PMS5003;27971;53.902;9.118;2023-02-04T09:51:30;0.1;0.1;
41382;PMS5003;27971;53.902;9.118;2023-02-04T09:53:32;0.28;0.28;
41382;PMS5003;27971;53.902;9.118;2023-02-04T09:55:36;0.71;0.56;
41382;PMS5003;27971;53.902;9.118;2023-02-04T09:57:38;0.16;0.11;
41382;PMS5003;27971;53.902;9.118;2023-02-04T09:59:41;1.6;0.72;
41382;PMS5003;27971;53.902;9.118;2023-02-04T10:01:44;0.15;0.04;
41382;PMS5003;27971;53.902;9.118;2023-02-04T10:03:47;0.66;0.26;
41382;PMS5003;27971;53.902;9.118;2023-02-04T10:05:49;0.27;0.01;
41382;PMS5003;27971;53.902;9.118;2023-02-04T10:07:52;0.69;0.34;
41382;PMS5003;27971;53.902;9.118;2023-02-04T10:09:54;0.62;0.62;
41382;PMS5003;27971;53.902;9.118;2023-02-04T10:11:57;0.13;0.13;
41382;PMS5003;27971;53.902;9.118;2023-02-04T10:13:59;0.54;0.21;
41382;PMS5003;27971;53.902;9.118;2023-02-04T10:16:03;0.27;0.2;
41382;PMS5003;27971;53.902;9.118;2023-02-04T10:18:05;0.71;0.07;
41382;PMS5003;27971;53.902;9.118;2023-02-04T10:22:14;0.68;0.56;
41382;PMS5003;27971;53.902;9.118;2023-02-04T10:24:15;0.43;0.31;
41382;PMS5003;27971;53.902;9.118;2023-02-04T10:26:24;0.03;0.03;
41382;PMS5003;27971;53.902;9.118;2023-02-04T10:28:20;0.04;0.04;
41382;PMS5003;27971;53.902;9.118;2023-02-04T10:30:23;0.11;0.11;
41382;PMS5003;27971;53.902;9.118;2023-02-04T10:32:26;0.3;0.3;
41382;PMS5003;27971;53.902;9.118;2023-02-04T10:34:31;0.13;0.0;
41382;PMS5003;27971;53.902;9.118;2023-02-04T10:36:31;0.54;0.07;
41382;PMS5003;27971;53.902;9.118;2023-02-04T10:38:34;0.62;0.6;
41382;PMS5003;27971;53.902;9.118;2023-02-04T10:40:36;0.22;0.22;
41382;PMS5003;27971;53.902;9.118;2023-02-04T10:42:46;0.17;0.17;
41382;PMS5003;27971;53.902;9.118;2023-02-04T10:44:45;0.64;0.57;
41382;PMS5003;27971;53.902;9.118;2023-02-04T10:46:44;0.52;0.52;
41382;PMS5003;27971;53.902;9.118;2023-02-04T10:48:46;0.67;0.67;
41382;PMS5003;27971;53.902;9.118;2023-02-04T10:50:49;1.14;1.03;
41382;PMS5003;27971;53.902;9.118;2023-02-04T10:52:52;1.44;0.62;
41382;PMS5003;27971;53.902;9.118;2023-02-04T10:54:55;1.03;0.66;
41382;PMS5003;27971;53.902;9.118;2023-02-04T10:56:57;1.26;1.03;
41382;PMS5003;27971;53.902;9.118;2023-02-04T10:59:00;0.52;0.49;
41382;PMS5003;27971;53.902;9.118;2023-02-04T11:01:02;0.01;0.0;
41382;PMS5003;27971;53.902;9.118;2023-02-04T11:03:06;0.26;0.2;
41382;PMS5003;27971;53.902;9.118;2023-02-04T11:05:11;0.6;0.6;
41382;PMS5003;27971;53.902;9.118;2023-02-04T11:07:10;0.4;0.4;
41382;PMS5003;27971;53.902;9.118;2023-02-04T11:09:14;0.5;0.2;
41382;PMS5003;27971;53.902;9.118;2023-02-04T11:11:17;0.14;0.14;
41382;PMS5003;27971;53.902;9.118;2023-02-04T11:13:20;0.42;0.42;
41382;PMS5003;27971;53.902;9.118;2023-02-04T11:16:05;0.61;0.61;
41382;PMS5003;27971;53.902;9.118;2023-02-04T11:17:27;0.89;0.89;
41382;PMS5003;27971;53.902;9.118;2023-02-04T11:19:31;0.49;0.49;
41382;PMS5003;27971;53.902;9.118;2023-02-04T11:21:40;0.18;0.18;
41382;PMS5003;27971;53.902;9.118;2023-02-04T11:23:33;0.22;0.22;
41382;PMS5003;27971;53.902;9.118;2023-02-04T11:25:35;0.88;0.51;
41382;PMS5003;27971;53.902;9.118;2023-02-04T11:27:38;0.27;0.09;
41382;PMS5003;27971;53.902;9.118;2023-02-04T11:29:41;0.16;0.0;
41382;PMS5003;27971;53.902;9.118;2023-02-04T11:31:54;0.6;0.02;
41382;PMS5003;27971;53.902;9.118;2023-02-04T11:33:46;0.11;0.06;
41382;PMS5003;27971;53.902;9.118;2023-02-04T11:35:56;0.8;0.2;
41382;PMS5003;27971;53.902;9.118;2023-02-04T11:37:52;0.56;0.05;
41382;PMS5003;27971;53.902;9.118;2023-02-04T11:39:54;0.38;0.14;
41382;PMS5003;27971;53.902;9.118;2023-02-04T11:41:57;0.6;0.6;
41382;PMS5003;27971;53.902;9.118;2023-02-04T11:44:00;0.39;0.06;
41382;PMS5003;27971;53.902;9.118;2023-02-04T11:46:03;0.0;0.0;
41382;PMS5003;27971;53.902;9.118;2023-02-04T11:48:09;0.47;0.07;
41382;PMS5003;27971;53.902;9.118;2023-02-04T11:50:12;0.0;0.0;
41382;PMS5003;27971;53.902;9.118;2023-02-04T11:52:11;0.24;0.24;
41382;PMS5003;27971;53.902;9.118;2023-02-04T11:54:14;0.6;0.16;
41382;PMS5003;27971;53.902;9.118;2023-02-04T11:56:16;1.16;0.44;
41382;PMS5003;27971;53.902;9.118;2023-02-04T11:58:19;0.6;0.13;
41382;PMS5003;27971;53.902;9.118;2023-02-04T12:00:23;1.26;0.8;
41382;PMS5003;27971;53.902;9.118;2023-02-04T12:02:25;0.86;0.72;
41382;PMS5003;27971;53.902;9.118;2023-02-04T12:04:27;0.56;0.56;
41382;PMS5003;27971;53.902;9.118;2023-02-04T12:06:30;0.16;0.16;
41382;PMS5003;27971;53.902;9.118;2023-02-04T12:08:33;0.94;0.06;
41382;PMS5003;27971;53.902;9.118;2023-02-04T12:10:36;0.49;0.29;
41382;PMS5003;27971;53.902;9.118;2023-02-04T12:12:41;0.13;0.13;
41382;PMS5003;27971;53.902;9.118;2023-02-04T12:14:41;0.01;0.01;
41382;PMS5003;27971;53.902;9.118;2023-02-04T12:16:44;0.74;0.52;
41382;PMS5003;27971;53.902;9.118;2023-02-04T12:18:47;0.08;0.08;
41382;PMS5003;27971;53.902;9.118;2023-02-04T12:20:49;0.42;0.24;
41382;PMS5003;27971;53.902;9.118;2023-02-04T12:22:51;0.5;0.14;
41382;PMS5003;27971;53.902;9.118;2023-02-04T12:24:54;0.39;0.39;
41382;PMS5003;27971;53.902;9.118;2023-02-04T12:26:56;2.4;1.82;
41382;PMS5003;27971;53.902;9.118;2023-02-04T12:29:00;3.24;2.41;
41382;PMS5003;27971;53.902;9.118;2023-02-04T12:31:03;3.09;2.82;
41382;PMS5003;27971;53.902;9.118;2023-02-04T12:33:05;3.6;2.96;
41382;PMS5003;27971;53.902;9.118;2023-02-04T12:35:08;1.81;1.61;
41382;PMS5003;27971;53.902;9.118;2023-02-04T12:37:10;2.68;2.28;
41382;PMS5003;27971;53.902;9.118;2023-02-04T12:39:13;4.44;3.12;
41382;PMS5003;27971;53.902;9.118;2023-02-04T12:41:15;3.93;3.7;
41382;PMS5003;27971;53.902;9.118;2023-02-04T12:43:18;4.01;3.58;
41382;PMS5003;27971;53.902;9.118;2023-02-04T12:45:20;4.0;3.16;
41382;PMS5003;27971;53.902;9.118;2023-02-04T12:47:22;5.89;4.81;
41382;PMS5003;27971;53.902;9.118;2023-02-04T12:49:25;7.1;4.96;
41382;PMS5003;27971;53.902;9.118;2023-02-04T12:51:28;5.7;5.23;
41382;PMS5003;27971;53.902;9.118;2023-02-04T12:53:30;8.34;6.82;